Hollywood, Arkansas
Current Conditions -  °F | °C
As of 4:56 PM on Wednesday 26 Nov 2014 (Local Time) from KADF Reporting Station
Clear Clear  
Wind Chill: 55°   Ceiling: Unl
Heat Index: 55°   Visibility: 10mi
Dew Point: 31°   Wind: 9mph
Humidity: 40%   Direction: 310°NW
Pressure: 30.15"   Gusts: NA
Location:  34.0941°N, 93.0475°W
Report Text: KADF 262256Z AUTO 31008KT 10SM CLR 13/M01 A3015 RMK AO2 T01271005 SLP225
Loading
Personal Weather Stations






























Interactive Weather Map New forecast layout! Learn more

10-Day Weather Forecast

Advertisements
Track Severe Weather on mobile